Time;durP1;ratioP1;P1;durP2;ratioP2;P2;SDS_P1;SDS_P2;PMS_P1;PMS_P2;Temp;Humidity;BMP_temperature;BMP_pressure;BME280_temperature;BME280_humidity;BME280_pressure;Samples;Min_cycle;Max_cycle;Signal;HPM_P1;HPM_P2
2021/06/01 00:01:45;;;;;;;4.65;2.62;;;;;;;10.71;66.87;99338.70;1715195;82;21028;-61
2021/06/01 00:04:12;;;;;;;3.98;2.50;;;;;;;10.64;67.11;99339.04;1714364;82;20975;-58
2021/06/01 00:06:39;;;;;;;3.27;2.72;;;;;;;10.58;67.33;99337.09;1705854;82;21087;-59
2021/06/01 00:09:10;;;;;;;2.55;2.33;;;;;;;10.60;67.53;99337.75;1714420;83;21016;-60
2021/06/01 00:11:37;;;;;;;3.10;2.35;;;;;;;10.58;67.91;99336.27;1710440;83;21055;-59
2021/06/01 00:14:06;;;;;;;2.87;2.50;;;;;;;10.59;67.98;99334.75;1710124;83;21019;-57
2021/06/01 00:16:32;;;;;;;3.12;2.33;;;;;;;10.58;68.15;99334.44;1702763;82;21024;-58
2021/06/01 00:18:58;;;;;;;5.53;2.52;;;;;;;10.56;68.28;99336.41;1715420;82;21063;-59
2021/06/01 00:21:25;;;;;;;2.77;2.42;;;;;;;10.51;68.46;99333.45;1714577;83;20904;-57
2021/06/01 00:23:54;;;;;;;3.52;2.02;;;;;;;10.47;68.54;99335.64;1716673;83;21059;-58
2021/06/01 00:26:20;;;;;;;5.97;2.37;;;;;;;10.42;68.29;99331.34;1702413;82;21002;-59
2021/06/01 00:28:48;;;;;;;2.72;1.80;;;;;;;10.38;68.30;99331.84;1700164;83;20944;-60
2021/06/01 00:31:14;;;;;;;2.58;2.35;;;;;;;10.35;68.14;99329.03;1691892;82;21135;-58
2021/06/01 00:33:40;;;;;;;3.90;2.67;;;;;;;10.27;68.24;99333.05;1714417;81;21062;-58
2021/06/01 00:36:07;;;;;;;4.35;2.80;;;;;;;10.24;68.37;99332.09;1725635;83;21517;-56
2021/06/01 00:38:36;;;;;;;5.45;2.77;;;;;;;10.21;68.49;99333.75;1727524;81;20999;-57
2021/06/01 00:41:03;;;;;;;5.90;2.83;;;;;;;10.20;68.60;99337.40;1727545;82;20979;-57
2021/06/01 00:43:31;;;;;;;8.55;2.50;;;;;;;10.25;68.51;99330.23;1720332;81;21665;-57
2021/06/01 00:45:58;;;;;;;8.88;3.25;;;;;;;10.26;68.76;99333.23;1708208;81;20959;-58
2021/06/01 00:48:24;;;;;;;5.70;2.87;;;;;;;10.26;68.90;99331.41;1714663;81;21067;-58
2021/06/01 00:50:51;;;;;;;6.28;3.10;;;;;;;10.23;69.00;99332.23;1712295;81;20991;-57
2021/06/01 00:53:17;;;;;;;4.22;3.27;;;;;;;10.27;69.10;99337.56;1712071;83;20995;-60
2021/06/01 00:55:45;;;;;;;4.97;3.05;;;;;;;10.29;69.29;99339.54;1716603;81;21092;-59
2021/06/01 00:58:11;;;;;;;5.10;2.30;;;;;;;10.30;69.09;99339.36;1709621;83;21095;-57
2021/06/01 01:00:55;;;;;;;4.90;3.80;;;;;;;10.31;68.72;99340.19;1707313;81;21548;-62
2021/06/01 01:03:09;;;;;;;4.70;3.00;;;;;;;10.26;68.50;99338.05;1705952;83;21520;-57
2021/06/01 01:05:40;;;;;;;4.72;3.00;;;;;;;10.23;68.30;99344.20;1712998;83;21078;-57
2021/06/01 01:11:21;;;;;;;3.95;2.85;;;;;;;10.00;68.23;99337.44;1708611;83;20928;-59
2021/06/01 01:13:52;;;;;;;4.45;2.40;;;;;;;9.90;68.24;99334.98;1713461;81;20888;-62
2021/06/01 01:16:19;;;;;;;2.55;2.35;;;;;;;9.80;68.21;99330.31;1714627;81;20971;-57
2021/06/01 01:18:50;;;;;;;3.52;2.67;;;;;;;9.75;68.11;99333.98;1711929;81;21044;-58
2021/06/01 01:21:44;;;;;;;3.60;2.92;;;;;;;9.72;68.23;99333.51;1714121;83;21680;-58
2021/06/01 01:24:31;;;;;;;3.37;2.47;;;;;;;9.64;68.27;99327.71;1678131;83;21654;-61
2021/06/01 01:27:34;;;;;;;3.83;2.40;;;;;;;9.54;68.43;99331.02;1668529;85;21124;-57
2021/06/01 01:30:05;;;;;;;3.58;3.22;;;;;;;9.46;68.99;99327.06;1708602;83;21003;-56
2021/06/01 01:33:02;;;;;;;3.83;2.50;;;;;;;9.42;69.12;99329.70;1708163;83;21019;-57
2021/06/01 01:35:31;;;;;;;4.40;3.00;;;;;;;9.43;69.09;99327.39;1722764;81;21114;-57
2021/06/01 01:37:59;;;;;;;4.83;3.80;;;;;;;9.45;69.13;99325.39;1666711;84;20900;-57
2021/06/01 01:40:27;;;;;;;3.77;2.67;;;;;;;9.47;69.53;99326.54;1692819;84;21063;-59
2021/06/01 01:43:00;;;;;;;4.05;2.85;;;;;;;9.46;69.69;99325.73;1681826;84;21002;-59
2021/06/01 01:45:34;;;;;;;4.37;3.30;;;;;;;9.49;69.76;99320.06;1682871;84;21163;-62
2021/06/01 01:50:44;;;;;;;7.67;3.55;;;;;;;9.60;70.06;99321.06;1693027;84;21584;-59
2021/06/01 01:53:13;;;;;;;4.37;3.98;;;;;;;9.58;70.46;99321.73;1693008;84;21039;-58
2021/06/01 01:55:39;;;;;;;4.40;3.50;;;;;;;9.58;70.70;99317.75;1667330;84;20975;-61
2021/06/01 01:58:07;;;;;;;6.47;3.08;;;;;;;9.60;70.70;99314.91;1692985;84;20912;-57
2021/06/01 02:00:34;;;;;;;5.37;2.98;;;;;;;9.60;70.65;99313.09;1692847;84;21705;-57
2021/06/01 02:03:00;;;;;;;6.25;3.15;;;;;;;9.59;70.64;99323.41;1666019;84;21169;-57
2021/06/01 02:05:27;;;;;;;4.55;3.40;;;;;;;9.56;70.79;99320.24;1668123;84;20940;-60
2021/06/01 02:07:55;;;;;;;4.03;2.85;;;;;;;9.56;70.76;99323.73;1665713;84;21607;-58
2021/06/01 02:10:22;;;;;;;4.72;3.12;;;;;;;9.50;70.62;99326.21;1665388;84;20991;-58
2021/06/01 02:12:48;;;;;;;3.70;2.83;;;;;;;9.45;70.57;99325.88;1665873;84;21050;-60
2021/06/01 02:15:15;;;;;;;5.55;3.17;;;;;;;9.42;70.52;99315.09;1667279;84;21624;-58
2021/06/01 02:17:41;;;;;;;3.30;3.00;;;;;;;9.41;70.35;99317.94;1665821;84;21014;-58
2021/06/01 02:20:11;;;;;;;7.67;3.50;;;;;;;9.39;70.40;99322.06;1665448;84;21621;-60
2021/06/01 02:25:42;;;;;;;4.58;3.45;;;;;;;9.37;70.71;99317.42;1665639;84;21082;-59
2021/06/01 02:28:27;;;;;;;4.10;3.60;;;;;;;9.38;71.13;99316.45;1665972;84;21098;-58
2021/06/01 02:30:58;;;;;;;5.65;4.05;;;;;;;9.42;71.17;99315.09;1665590;84;21603;-57
2021/06/01 02:33:24;;;;;;;5.60;3.67;;;;;;;9.46;71.38;99320.92;1683817;84;21596;-59
2021/06/01 02:35:51;;;;;;;4.55;2.90;;;;;;;9.51;71.53;99318.59;1675155;84;21022;-63
2021/06/01 02:38:18;;;;;;;4.45;3.10;;;;;;;9.59;71.41;99319.42;1692568;83;21088;-61
2021/06/01 02:40:45;;;;;;;3.55;2.75;;;;;;;9.68;71.10;99318.39;1692260;84;20923;-59
2021/06/01 02:43:13;;;;;;;4.25;3.02;;;;;;;9.75;70.81;99318.56;1692219;84;21629;-59
2021/06/01 02:45:41;;;;;;;5.37;3.10;;;;;;;9.83;70.73;99316.70;1671104;84;21126;-62
2021/06/01 02:48:08;;;;;;;4.35;2.87;;;;;;;9.93;70.60;99313.88;1665413;84;20939;-59
2021/06/01 02:50:34;;;;;;;4.75;3.42;;;;;;;10.04;70.55;99321.98;1666372;84;21034;-59
2021/06/01 02:53:02;;;;;;;5.47;3.27;;;;;;;10.14;70.52;99311.49;1665299;84;21026;-59
2021/06/01 02:55:30;;;;;;;4.25;2.83;;;;;;;10.28;70.47;99317.44;1667789;84;21014;-59
2021/06/01 02:57:57;;;;;;;4.58;2.52;;;;;;;10.42;70.22;99313.23;1681213;84;20931;-59
2021/06/01 03:00:24;;;;;;;6.35;3.02;;;;;;;10.61;69.77;99312.78;1686739;84;20984;-58
2021/06/01 03:02:52;;;;;;;3.83;2.72;;;;;;;10.83;69.26;99316.49;1682046;84;21900;-59
2021/06/01 03:05:19;;;;;;;3.08;2.60;;;;;;;11.04;68.60;99316.69;1684296;84;21594;-63
2021/06/01 03:07:52;;;;;;;6.92;3.12;;;;;;;11.25;68.01;99326.69;1679050;84;21041;-61
2021/06/01 03:10:19;;;;;;;7.67;2.60;;;;;;;11.50;67.36;99320.98;1670101;84;20949;-60
2021/06/01 03:12:54;;;;;;;3.85;2.55;;;;;;;11.77;66.51;99326.27;1679002;84;20951;-60
2021/06/01 03:15:14;;;;;;;7.72;5.00;;;;;;;12.07;65.83;99321.27;1682168;84;21431;-57
2021/06/01 03:17:41;;;;;;;8.73;6.90;;;;;;;12.45;64.87;99319.34;1678894;84;21038;-58
2021/06/01 03:20:10;;;;;;;7.53;4.53;;;;;;;12.84;63.88;99325.66;1682922;84;21612;-59
2021/06/01 03:22:36;;;;;;;4.47;3.67;;;;;;;13.25;62.94;99318.72;1687226;84;20979;-58
2021/06/01 03:25:04;;;;;;;7.50;4.22;;;;;;;13.63;61.88;99313.40;1681395;84;21630;-58
2021/06/01 03:27:31;;;;;;;7.40;4.00;;;;;;;14.00;60.98;99315.44;1675989;84;21031;-58
2021/06/01 03:29:57;;;;;;;11.22;8.15;;;;;;;14.36;60.07;99315.26;1682397;84;21011;-58
2021/06/01 03:32:24;;;;;;;14.25;8.73;;;;;;;14.76;59.03;99306.35;1672716;84;20976;-58
2021/06/01 03:34:50;;;;;;;6.90;5.80;;;;;;;15.14;58.15;99309.35;1692225;84;20983;-58
2021/06/01 03:37:17;;;;;;;6.40;4.20;;;;;;;15.52;57.30;99308.27;1672415;84;21602;-62
2021/06/01 03:39:44;;;;;;;8.98;3.45;;;;;;;15.96;56.31;99299.89;1708074;84;21087;-61
2021/06/01 03:42:14;;;;;;;4.00;3.58;;;;;;;16.49;55.10;99303.78;1687912;84;20986;-58
2021/06/01 03:44:41;;;;;;;3.55;3.25;;;;;;;17.01;53.67;99302.22;1708037;84;21026;-61
2021/06/01 03:47:07;;;;;;;4.90;2.75;;;;;;;17.57;52.32;99307.64;1706004;84;20982;-59
2021/06/01 03:49:35;;;;;;;2.67;2.47;;;;;;;18.09;50.83;99302.84;1707994;84;21050;-61
2021/06/01 03:52:06;;;;;;;3.20;2.77;;;;;;;18.57;49.42;99308.33;1707711;84;22278;-58
2021/06/01 03:54:29;;;;;;;7.65;3.00;;;;;;;19.04;48.26;99303.47;1699719;84;21514;-59
2021/06/01 03:56:55;;;;;;;3.10;2.85;;;;;;;19.37;46.89;99301.13;1682691;84;21007;-57
2021/06/01 03:59:22;;;;;;;4.67;3.55;;;;;;;19.67;45.57;99303.27;1682176;84;20974;-58
2021/06/01 04:01:48;;;;;;;5.97;4.08;;;;;;;19.69;45.15;99303.02;1680995;84;21409;-58
2021/06/01 04:04:15;;;;;;;4.58;3.30;;;;;;;19.95;44.94;99305.78;1682153;84;21097;-58
2021/06/01 04:06:41;;;;;;;3.80;3.27;;;;;;;20.27;44.59;99303.05;1682848;84;21123;-58
2021/06/01 04:09:07;;;;;;;8.08;3.27;;;;;;;20.71;43.72;99302.38;1688651;84;21620;-57
2021/06/01 04:11:34;;;;;;;6.80;3.40;;;;;;;21.14;43.11;99303.77;1699608;84;20998;-57
2021/06/01 04:14:01;;;;;;;4.78;2.85;;;;;;;21.64;42.09;99299.78;1680955;84;20977;-58
2021/06/01 04:16:28;;;;;;;5.80;2.92;;;;;;;21.96;41.34;99300.31;1688412;84;21151;-60
2021/06/01 04:18:56;;;;;;;4.00;2.65;;;;;;;22.18;40.92;99301.73;1693148;84;20966;-61
2021/06/01 04:21:22;;;;;;;4.55;2.77;;;;;;;22.12;39.35;99306.78;1683830;84;20974;-61
2021/06/01 04:23:48;;;;;;;3.80;2.87;;;;;;;21.77;39.38;99310.28;1680984;84;21615;-58
2021/06/01 04:26:15;;;;;;;4.45;3.70;;;;;;;21.53;39.97;99304.20;1682176;84;21049;-62
2021/06/01 04:28:41;;;;;;;3.50;2.58;;;;;;;21.30;40.13;99299.72;1695211;84;21092;-58
2021/06/01 04:31:08;;;;;;;2.72;2.52;;;;;;;21.30;40.27;99307.05;1684747;84;21564;-60
2021/06/01 04:33:34;;;;;;;4.70;2.52;;;;;;;21.30;40.17;99302.43;1701408;84;21015;-59
2021/06/01 04:36:01;;;;;;;5.08;2.08;;;;;;;21.57;40.60;99308.05;1708080;84;21026;-61
2021/06/01 04:38:27;;;;;;;3.00;2.05;;;;;;;21.69;39.06;99303.92;1700760;83;21129;-58
2021/06/01 04:40:53;;;;;;;5.12;2.33;;;;;;;21.61;39.39;99304.33;1677763;84;21595;-58
2021/06/01 04:43:20;;;;;;;3.45;2.08;;;;;;;21.73;39.35;99307.77;1668425;84;20991;-60
2021/06/01 04:45:46;;;;;;;3.10;2.27;;;;;;;21.97;38.99;99314.16;1671458;84;21516;-58
2021/06/01 04:48:13;;;;;;;4.72;2.17;;;;;;;22.12;38.50;99311.67;1670188;84;21051;-61
2021/06/01 04:50:39;;;;;;;2.58;1.92;;;;;;;22.24;38.40;99306.13;1682702;84;21638;-60
2021/06/01 04:53:05;;;;;;;5.33;2.60;;;;;;;22.44;38.33;99306.43;1668321;84;21011;-59
2021/06/01 04:55:32;;;;;;;3.62;2.10;;;;;;;23.05;38.32;99303.09;1672107;84;20963;-58
2021/06/01 04:57:58;;;;;;;4.45;2.80;;;;;;;24.02;36.75;99303.72;1685215;84;20959;-63
2021/06/01 05:00:25;;;;;;;4.42;2.75;;;;;;;24.53;35.33;99299.45;1686532;84;21087;-63
2021/06/01 05:02:52;;;;;;;5.28;2.05;;;;;;;25.12;34.93;99293.14;1673675;84;21059;-60
2021/06/01 05:05:19;;;;;;;3.55;2.08;;;;;;;25.72;33.60;99299.22;1672924;84;21608;-57
2021/06/01 05:07:45;;;;;;;3.85;3.40;;;;;;;26.36;32.26;99308.95;1678757;84;21039;-60
2021/06/01 05:10:11;;;;;;;4.10;3.33;;;;;;;26.60;31.14;99295.52;1684054;84;20982;-57
2021/06/01 05:12:39;;;;;;;4.50;2.08;;;;;;;26.32;31.90;99305.16;1675349;84;20963;-61
2021/06/01 05:15:08;;;;;;;2.33;2.05;;;;;;;26.24;30.93;99301.09;1675704;84;21600;-60
2021/06/01 05:17:35;;;;;;;2.72;1.90;;;;;;;25.84;31.17;99312.58;1685642;84;21661;-68
2021/06/01 05:20:03;;;;;;;5.25;2.25;;;;;;;25.40;32.52;99312.23;1689236;84;21030;-59
2021/06/01 05:22:30;;;;;;;3.75;1.80;;;;;;;25.51;31.86;99313.91;1691451;84;20963;-60
2021/06/01 05:24:56;;;;;;;6.37;1.98;;;;;;;25.55;31.95;99315.02;1687928;84;21556;-58
2021/06/01 05:27:23;;;;;;;6.90;2.52;;;;;;;25.75;31.90;99308.22;1688884;84;21027;-58
2021/06/01 05:29:54;;;;;;;5.20;2.45;;;;;;;25.47;31.54;99308.19;1685690;84;21247;-59
2021/06/01 05:34:58;;;;;;;4.58;2.87;;;;;;;25.08;32.93;99310.54;1692575;83;21068;-62
2021/06/01 05:37:19;;;;;;;5.00;2.30;;;;;;;25.39;31.97;99317.42;1684237;84;21603;-58
2021/06/01 05:39:46;;;;;;;3.17;1.70;;;;;;;25.44;32.63;99317.42;1685441;83;20943;-57
2021/06/01 05:42:14;;;;;;;4.72;2.20;;;;;;;25.28;31.20;99328.02;1686389;83;21010;-58
2021/06/01 05:44:40;;;;;;;2.55;2.00;;;;;;;24.46;31.73;99334.19;1687845;84;21583;-56
2021/06/01 05:47:06;;;;;;;3.12;1.60;;;;;;;23.73;32.91;99327.68;1691592;84;21012;-57
2021/06/01 05:49:33;;;;;;;3.62;1.65;;;;;;;23.53;34.24;99333.47;1684827;84;21475;-55
2021/06/01 05:52:00;;;;;;;3.90;1.70;;;;;;;23.81;33.15;99334.53;1680670;84;21074;-57
2021/06/01 05:54:26;;;;;;;2.70;1.70;;;;;;;23.73;33.55;99332.29;1690413;84;21633;-57
2021/06/01 05:56:53;;;;;;;3.05;1.65;;;;;;;23.98;34.04;99335.23;1691688;84;21635;-56
2021/06/01 05:59:19;;;;;;;6.25;1.80;;;;;;;24.29;33.54;99334.38;1688434;84;20931;-59
2021/06/01 06:01:45;;;;;;;7.35;1.72;;;;;;;24.48;33.58;99330.13;1688955;84;21945;-57
2021/06/01 06:04:12;;;;;;;3.05;1.77;;;;;;;24.45;32.93;99333.39;1687708;84;21122;-59
2021/06/01 06:06:38;;;;;;;2.83;1.70;;;;;;;24.52;33.05;99335.33;1689851;84;21445;-56
2021/06/01 06:09:05;;;;;;;1.57;1.40;;;;;;;24.98;32.27;99334.18;1690462;84;20975;-58
2021/06/01 06:11:31;;;;;;;2.98;1.80;;;;;;;25.01;31.64;99326.84;1689854;84;20971;-57
2021/06/01 06:13:58;;;;;;;3.22;1.50;;;;;;;24.61;32.15;99328.86;1691743;84;21011;-59
2021/06/01 06:16:25;;;;;;;2.20;1.70;;;;;;;24.43;31.97;99328.73;1683711;84;20951;-59
2021/06/01 06:18:55;;;;;;;8.28;1.87;;;;;;;24.05;32.84;99329.02;1668882;84;21772;-60
2021/06/01 06:21:22;;;;;;;6.62;1.65;;;;;;;23.73;32.79;99330.40;1670399;84;20974;-59
2021/06/01 06:23:48;;;;;;;3.60;1.77;;;;;;;23.47;34.29;99327.70;1690129;84;20963;-58
2021/06/01 06:26:15;;;;;;;3.00;1.50;;;;;;;23.35;34.22;99327.31;1689818;84;21109;-57
2021/06/01 06:28:42;;;;;;;3.30;1.95;;;;;;;23.29;34.24;99332.41;1689643;84;21077;-60
2021/06/01 06:31:08;;;;;;;4.28;1.82;;;;;;;23.12;34.95;99327.63;1687761;84;22808;-59
2021/06/01 06:33:35;;;;;;;3.33;1.37;;;;;;;22.89;35.71;99327.88;1686605;84;21018;-59
2021/06/01 06:36:02;;;;;;;1.47;1.20;;;;;;;23.01;34.77;99329.94;1687847;84;20943;-61
2021/06/01 06:38:29;;;;;;;4.55;1.30;;;;;;;23.39;34.17;99324.13;1685743;83;21086;-59
2021/06/01 06:41:12;;;;;;;2.95;1.45;;;;;;;23.69;34.52;99324.39;1687865;84;21595;-56
2021/06/01 06:43:29;;;;;;;1.62;1.45;;;;;;;23.80;33.40;99328.84;1688857;84;21104;-60
2021/06/01 06:45:56;;;;;;;3.35;1.90;;;;;;;23.42;33.72;99337.16;1690381;84;21011;-60
2021/06/01 06:48:22;;;;;;;3.30;1.35;;;;;;;23.45;33.54;99327.16;1692021;84;21570;-61
2021/06/01 06:50:49;;;;;;;2.75;1.35;;;;;;;23.91;32.56;99323.20;1684904;84;21034;-59
2021/06/01 06:53:15;;;;;;;1.95;1.32;;;;;;;24.28;32.05;99323.76;1689301;84;21015;-61
2021/06/01 06:55:41;;;;;;;4.97;1.40;;;;;;;24.50;30.99;99323.91;1667512;84;21693;-62
2021/06/01 06:58:08;;;;;;;3.17;1.32;;;;;;;24.76;31.65;99317.21;1690089;84;20956;-60
2021/06/01 07:00:35;;;;;;;3.00;1.20;;;;;;;25.29;30.33;99320.13;1690664;84;21518;-60
2021/06/01 07:03:02;;;;;;;5.45;1.30;;;;;;;25.70;30.22;99321.84;1686685;84;21010;-59
2021/06/01 07:05:29;;;;;;;3.83;1.25;;;;;;;26.15;29.03;99317.73;1691914;84;21019;-62
2021/06/01 07:07:56;;;;;;;3.17;1.50;;;;;;;26.42;28.71;99316.04;1685139;84;21084;-58
2021/06/01 07:10:23;;;;;;;3.12;1.35;;;;;;;26.35;27.65;99316.89;1689206;84;21070;-62
2021/06/01 07:12:49;;;;;;;7.22;2.15;;;;;;;26.07;27.23;99314.16;1686172;84;20924;-68
2021/06/01 07:15:28;;;;;;;3.40;1.30;;;;;;;25.81;26.65;99312.58;1690312;84;20959;-60
2021/06/01 07:17:57;;;;;;;5.78;1.37;;;;;;;25.38;26.87;99315.77;1683043;84;21034;-59
2021/06/01 07:20:25;;;;;;;3.83;1.32;;;;;;;24.90;27.51;99318.37;1679194;84;21101;-59
2021/06/01 07:22:52;;;;;;;1.57;1.00;;;;;;;24.09;28.69;99320.64;1682586;84;21110;-57
2021/06/01 07:25:18;;;;;;;2.30;1.17;;;;;;;23.48;29.34;99322.57;1679879;84;21577;-58
2021/06/01 07:27:44;;;;;;;2.83;1.02;;;;;;;23.28;30.22;99318.54;1685366;84;21022;-61
2021/06/01 07:30:14;;;;;;;3.45;1.30;;;;;;;23.26;30.46;99321.23;1677895;84;21014;-58
2021/06/01 07:32:40;;;;;;;7.65;1.12;;;;;;;23.25;30.63;99327.75;1675188;84;21075;-58
2021/06/01 07:35:08;;;;;;;4.45;1.40;;;;;;;23.14;31.17;99323.28;1691926;84;20995;-59
2021/06/01 07:37:35;;;;;;;6.83;1.35;;;;;;;22.76;31.64;99318.77;1692361;84;21039;-59
2021/06/01 07:40:01;;;;;;;4.12;1.10;;;;;;;22.22;31.00;99319.11;1692302;83;21501;-59
2021/06/01 07:42:27;;;;;;;1.80;0.95;;;;;;;21.69;31.21;99317.45;1692469;84;20920;-59
2021/06/01 07:44:54;;;;;;;3.17;1.00;;;;;;;21.37;30.58;99319.36;1692356;84;21857;-59
2021/06/01 07:47:20;;;;;;;2.87;0.90;;;;;;;21.44;30.26;99315.13;1692263;84;20963;-59
2021/06/01 07:49:46;;;;;;;3.75;0.78;;;;;;;21.72;29.63;99313.70;1666798;84;20972;-61
2021/06/01 07:52:13;;;;;;;0.75;0.75;;;;;;;21.85;28.57;99320.14;1692485;84;20975;-59
2021/06/01 07:54:39;;;;;;;2.70;1.52;;;;;;;21.56;29.23;99316.42;1692642;84;21558;-59
2021/06/01 07:57:06;;;;;;;3.58;1.40;;;;;;;21.45;29.38;99319.48;1692364;84;21014;-58
2021/06/01 07:59:33;;;;;;;2.87;1.30;;;;;;;21.61;29.57;99315.16;1685365;84;21063;-59
2021/06/01 08:02:00;;;;;;;2.62;1.17;;;;;;;21.88;29.80;99321.04;1656271;86;21043;-61
2021/06/01 08:04:26;;;;;;;1.50;1.40;;;;;;;22.28;28.84;99314.06;1692287;84;21562;-59
2021/06/01 08:06:53;;;;;;;1.85;1.00;;;;;;;22.55;28.45;99316.88;1692477;84;20924;-58
2021/06/01 08:09:20;;;;;;;7.28;1.12;;;;;;;22.77;28.26;99310.10;1692180;84;21152;-58
2021/06/01 08:11:47;;;;;;;1.32;0.88;;;;;;;22.90;27.84;99309.72;1692381;84;21433;-60
2021/06/01 08:14:14;;;;;;;2.83;1.00;;;;;;;23.25;27.43;99315.01;1692498;84;20971;-61
2021/06/01 08:16:44;;;;;;;2.55;0.90;;;;;;;23.64;26.66;99306.70;1692623;84;21442;-60
2021/06/01 08:19:28;;;;;;;2.05;1.05;;;;;;;23.83;26.32;99318.25;1692320;84;20963;-58
2021/06/01 08:22:00;;;;;;;4.67;1.02;;;;;;;23.90;26.35;99320.77;1691790;84;22397;-59
2021/06/01 08:24:24;;;;;;;0.98;0.85;;;;;;;23.83;25.83;99316.07;1691912;84;21026;-60
2021/06/01 08:26:51;;;;;;;3.75;1.00;;;;;;;23.74;26.55;99323.08;1692375;84;21485;-60
2021/06/01 08:29:17;;;;;;;1.25;0.90;;;;;;;24.05;26.39;99318.15;1692487;84;21011;-59
2021/06/01 08:31:44;;;;;;;4.83;1.30;;;;;;;24.47;25.84;99315.45;1672864;84;21151;-59
2021/06/01 08:34:12;;;;;;;4.08;0.90;;;;;;;24.62;25.19;99317.41;1680443;84;20990;-59
2021/06/01 08:36:39;;;;;;;1.07;0.98;;;;;;;24.43;24.31;99318.40;1699560;84;21007;-59
2021/06/01 08:39:06;;;;;;;1.35;1.07;;;;;;;24.55;24.45;99317.66;1699599;84;21631;-61
2021/06/01 08:41:35;;;;;;;1.95;0.98;;;;;;;24.76;24.62;99318.57;1699643;82;20916;-59
2021/06/01 08:44:03;;;;;;;3.70;1.00;;;;;;;24.58;23.11;99317.67;1699840;84;20979;-58
2021/06/01 08:46:31;;;;;;;3.08;1.00;;;;;;;24.20;24.36;99314.20;1699758;84;21101;-58
2021/06/01 08:48:58;;;;;;;1.65;1.02;;;;;;;24.47;24.61;99314.91;1699687;84;21008;-59
2021/06/01 08:51:26;;;;;;;1.22;1.00;;;;;;;24.81;24.73;99315.90;1699832;84;21571;-58
2021/06/01 08:53:56;;;;;;;3.00;1.20;;;;;;;25.33;24.63;99311.14;1699784;84;21594;-61
2021/06/01 08:56:22;;;;;;;1.40;1.05;;;;;;;25.96;24.16;99311.20;1699805;84;21603;-61
2021/06/01 08:58:50;;;;;;;3.00;1.02;;;;;;;26.00;22.95;99307.36;1699694;84;21100;-59
2021/06/01 09:01:20;;;;;;;1.82;1.10;;;;;;;25.46;23.14;99312.02;1699960;84;21421;-59
2021/06/01 09:03:55;;;;;;;1.22;0.95;;;;;;;25.05;23.75;99315.72;1699859;84;21015;-60
2021/06/01 09:06:45;;;;;;;1.50;0.93;;;;;;;24.68;23.69;99315.00;1699659;84;20978;-60
2021/06/01 09:22:36;;;;;;;1.62;1.10;;;;;;;23.22;26.05;99327.73;1699904;84;20939;-58
2021/06/01 09:25:12;;;;;;;3.00;1.12;;;;;;;23.03;26.59;99334.56;1680060;84;21664;-61
2021/06/01 09:27:44;;;;;;;1.82;0.88;;;;;;;22.94;26.73;99334.74;1699753;84;21267;-58
2021/06/01 09:30:13;;;;;;;5.25;0.90;;;;;;;22.72;26.35;99329.32;1698266;84;21556;-60
2021/06/01 09:32:43;;;;;;;1.95;0.93;;;;;;;22.63;26.67;99326.75;1631228;87;21599;-59
2021/06/01 09:35:12;;;;;;;1.25;0.85;;;;;;;22.56;26.82;99318.48;1692523;84;20991;-59
2021/06/01 09:37:38;;;;;;;3.55;1.45;;;;;;;22.32;27.03;99323.31;1692504;84;21109;-61
2021/06/01 09:40:11;;;;;;;2.27;1.35;;;;;;;22.28;27.65;99326.78;1697694;83;21082;-60
2021/06/01 09:42:43;;;;;;;0.82;0.82;;;;;;;22.41;27.72;99326.42;1717491;82;21039;-58
2021/06/01 09:45:14;;;;;;;3.60;1.22;;;;;;;22.50;26.98;99321.66;1717543;83;21071;-58
2021/06/01 09:47:47;;;;;;;2.62;1.00;;;;;;;22.42;27.24;99319.95;1717446;82;21050;-60
2021/06/01 09:53:26;;;;;;;1.57;1.27;;;;;;;22.38;27.16;99320.14;1701791;83;21011;-57
2021/06/01 09:55:51;;;;;;;2.58;0.80;;;;;;;21.59;27.70;99320.80;1717237;82;20956;-60
2021/06/01 09:58:34;;;;;;;1.25;0.90;;;;;;;21.09;29.07;99324.76;1717437;83;20929;-58
2021/06/01 10:01:05;;;;;;;3.17;1.10;;;;;;;21.22;29.71;99327.17;1717547;82;20991;-59
2021/06/01 10:03:49;;;;;;;3.60;1.02;;;;;;;21.22;29.71;99327.17;1717109;82;21075;-61
2021/06/01 10:06:16;;;;;;;2.30;0.98;;;;;;;21.29;29.86;99324.33;1717458;82;21019;-59
2021/06/01 10:08:48;;;;;;;1.92;0.80;;;;;;;21.45;29.31;99322.19;1717554;82;20952;-58
2021/06/01 10:11:17;;;;;;;1.77;0.90;;;;;;;21.56;29.10;99325.38;1717521;82;20960;-60
2021/06/01 10:13:43;;;;;;;2.95;0.98;;;;;;;21.67;29.25;99323.09;1717640;82;21004;-58
2021/06/01 10:16:12;;;;;;;3.47;1.10;;;;;;;21.79;29.53;99324.39;1717437;82;22813;-58
2021/06/01 10:18:40;;;;;;;2.00;1.10;;;;;;;21.96;29.56;99325.22;1717701;83;20948;-58
2021/06/01 10:21:14;;;;;;;2.77;1.00;;;;;;;22.01;29.20;99326.65;1717555;82;20898;-58
2021/06/01 10:23:43;;;;;;;5.47;1.55;;;;;;;21.76;28.54;99329.76;1717583;83;21031;-58
2021/06/01 10:26:11;;;;;;;3.72;1.45;;;;;;;21.48;28.88;99323.06;1717669;83;21466;-58
2021/06/01 10:28:45;;;;;;;2.77;0.95;;;;;;;21.20;29.93;99321.71;1717601;82;21671;-58
2021/06/01 10:31:15;;;;;;;1.70;0.80;;;;;;;21.15;30.16;99321.63;1695614;82;20993;-62
2021/06/01 10:33:45;;;;;;;2.98;1.00;;;;;;;21.27;29.97;99319.17;1718798;81;20999;-58
2021/06/01 10:44:49;;;;;;;3.75;1.72;;;;;;;20.89;30.45;99311.65;1699698;84;21041;-56
2021/06/01 10:50:23;;;;;;;1.40;0.90;;;;;;;21.10;29.19;99312.06;1700029;84;21002;-59
2021/06/01 10:55:55;;;;;;;2.60;1.05;;;;;;;21.30;28.50;99303.78;1695724;84;21095;-57
2021/06/01 10:58:41;;;;;;;4.60;1.07;;;;;;;21.23;28.68;99305.00;1697253;84;21002;-59
2021/06/01 11:04:26;;;;;;;1.57;0.98;;;;;;;21.14;30.11;99303.77;1690192;84;21203;-59
2021/06/01 11:07:11;;;;;;;2.70;1.22;;;;;;;21.34;29.96;99300.07;1673014;84;20979;-63
2021/06/01 11:09:37;;;;;;;1.25;0.90;;;;;;;21.49;29.40;99301.68;1683251;84;21115;-61
2021/06/01 11:12:21;;;;;;;4.15;1.60;;;;;;;21.60;28.94;99304.85;1675508;84;21002;-59
2021/06/01 11:14:55;;;;;;;2.25;1.10;;;;;;;21.58;28.47;99300.22;1671363;84;21564;-60
2021/06/01 11:17:38;;;;;;;1.35;0.80;;;;;;;21.60;28.28;99291.32;1671239;84;21057;-60
2021/06/01 11:20:14;;;;;;;2.00;1.10;;;;;;;21.63;28.87;99294.89;1666510;84;20986;-60
2021/06/01 11:33:34;;;;;;;5.65;1.20;;;;;;;21.39;28.60;99289.33;1691028;84;20971;-62
2021/06/01 11:36:15;;;;;;;5.22;1.10;;;;;;;21.41;29.19;99283.14;1694611;84;21002;-58
2021/06/01 11:38:51;;;;;;;1.77;1.67;;;;;;;21.58;29.45;99285.86;1697912;84;21146;-58
2021/06/01 11:44:24;;;;;;;1.17;0.80;;;;;;;22.02;28.81;99280.91;1720060;81;21054;-62
2021/06/01 11:47:09;;;;;;;1.92;0.80;;;;;;;22.17;27.97;99278.94;1722395;83;20876;-58
2021/06/01 11:52:08;;;;;;;1.50;1.00;;;;;;;22.33;28.60;99273.48;1725491;83;21070;-57
2021/06/01 11:54:37;;;;;;;3.47;1.10;;;;;;;22.02;28.93;99273.61;1724649;83;21087;-57
2021/06/01 12:18:38;;;;;;;2.30;1.32;;;;;;;21.47;27.89;99263.23;1724651;81;21580;-64
2021/06/01 12:21:09;;;;;;;4.95;0.98;;;;;;;21.72;28.38;99262.27;1724201;83;20971;-63
2021/06/01 12:23:45;;;;;;;3.92;1.27;;;;;;;21.99;28.60;99261.91;1716418;83;21107;-61
2021/06/01 12:26:33;;;;;;;1.50;0.90;;;;;;;22.18;28.59;99271.92;1717262;83;21573;-59
2021/06/01 12:32:15;;;;;;;2.90;0.90;;;;;;;22.32;28.47;99275.06;1717205;83;21047;-61
2021/06/01 12:35:17;;;;;;;7.10;0.90;;;;;;;22.30;28.26;99269.09;1724630;81;20980;-58
2021/06/01 12:46:38;;;;;;;2.27;1.22;;;;;;;21.97;28.48;99276.24;1718069;81;21088;-59
2021/06/01 13:07:29;;;;;;;1.20;1.10;;;;;;;21.19;29.67;99267.34;1723401;81;21078;-53
2021/06/01 13:09:40;;;;;;;1.95;1.20;;;;;;;20.97;30.78;99270.41;1720829;83;21353;-52
2021/06/01 13:20:49;;;;;;;2.12;1.30;;;;;;;20.58;31.17;99266.16;1723298;83;21015;-54
2021/06/01 13:39:58;;;;;;;1.87;0.88;;;;;;;20.31;31.19;99267.73;1709694;83;21172;-65
2021/06/01 13:50:46;;;;;;;1.62;1.50;;;;;;;20.60;31.15;99268.61;1729011;83;21453;-57
2021/06/01 13:55:06;;;;;;;6.60;2.02;;;;;;;20.50;30.06;99265.70;1704968;81;21013;-57
2021/06/01 13:55:34;;;;;;;2.00;1.50;;;;;;;20.51;30.41;99265.48;1710473;81;20994;-58
2021/06/01 14:00:50;;;;;;;3.45;1.32;;;;;;;20.52;30.06;99254.15;1712833;83;21036;-56
2021/06/01 14:15:20;;;;;;;3.58;1.35;;;;;;;20.63;30.79;99270.31;1723116;83;20943;-59
2021/06/01 14:19:40;;;;;;;3.92;2.25;;;;;;;21.13;30.36;99266.95;1705781;83;21098;-57
2021/06/01 14:38:15;;;;;;;5.15;1.20;;;;;;;20.97;29.95;99270.41;1722526;82;21686;-60
2021/06/01 15:23:16;;;;;;;4.95;1.45;;;;;;;20.67;31.86;99274.19;1756201;81;20971;-59
2021/06/01 15:31:15;;;;;;;2.33;1.20;;;;;;;20.59;31.33;99275.09;1755237;81;20939;-60